Pattersonville, New York
Current Conditions -  °F | °C
As of 7:35 PM on Saturday 25 Oct 2014 (Local Time) from KNY0 Reporting Station
Overcast Overcast  
Wind Chill: 55°   Ceiling: 6000
Heat Index: 55°   Visibility: 10mi
Dew Point: 46°   Wind: 12mph
Humidity: 71%   Direction: 290°WNW
Pressure: 29.56"   Gusts: 21mph
Location:  42.89°N, 74.08°W
Report Text: KNY0 252335Z AUTO 29010G18KT 10SM SCT041 BKN060 OVC090 13/08 A2956 RMK AO2 T01270075
Loading
Personal Weather Stations






























Interactive Weather Map
Tropical Storm Tracking
New forecast layout! Learn more

10-Day Weather Forecast

Advertisements
Track Severe Weather on mobile